createdAt,value
2022-10-09T00:00:49.872Z,97051.34
2022-10-09T00:03:18.483Z,97053.22
2022-10-09T00:05:46.881Z,97054.03
2022-10-09T00:08:14.543Z,97051.63
2022-10-09T00:10:42.998Z,97050.00
2022-10-09T00:13:12.480Z,97045.97
2022-10-09T00:15:40.571Z,97048.66
2022-10-09T00:18:08.767Z,97051.66
2022-10-09T00:20:38.065Z,97049.78
2022-10-09T00:23:06.596Z,97043.84
2022-10-09T00:25:35.699Z,97046.81
2022-10-09T00:28:04.981Z,97046.25
2022-10-09T00:30:34.136Z,97040.63
2022-10-09T00:33:01.832Z,97051.69
2022-10-09T00:35:29.480Z,97028.84
2022-10-09T00:37:57.136Z,97034.22
2022-10-09T00:40:25.599Z,97031.81
2022-10-09T00:42:57.130Z,97025.09
2022-10-09T00:45:24.910Z,97036.91
2022-10-09T00:47:57.239Z,97031.53
2022-10-09T00:50:27.810Z,97025.63
2022-10-09T00:53:00.017Z,97028.06
2022-10-09T00:55:29.810Z,97030.75
2022-10-09T00:58:00.065Z,97020.53
2022-10-09T01:00:28.012Z,97005.75
2022-10-09T01:02:57.264Z,97017.03
2022-10-09T01:05:31.445Z,97010.56
2022-10-09T01:08:09.055Z,97002.28
2022-10-09T01:10:40.551Z,97000.38
2022-10-09T01:13:14.170Z,96996.34
2022-10-09T01:15:46.565Z,96991.25
2022-10-09T01:18:23.941Z,96982.09
2022-10-09T01:20:56.558Z,96989.09
2022-10-09T01:24:03.053Z,96991.25
2022-10-09T01:26:48.472Z,96984.81
2022-10-09T01:29:18.754Z,96975.41
2022-10-09T01:31:49.603Z,96983.22
2022-10-09T01:34:20.132Z,96978.63
2022-10-09T01:36:48.471Z,96973.00
2022-10-09T01:39:19.388Z,96967.09
2022-10-09T01:41:50.085Z,96975.41
2022-10-09T01:44:19.488Z,96968.69
2022-10-09T01:46:47.718Z,96965.47
2022-10-09T01:49:31.983Z,96962.78
2022-10-09T01:52:04.115Z,96957.16
2022-10-09T01:54:37.743Z,96960.38
2022-10-09T01:57:10.592Z,96950.44
2022-10-09T01:59:42.947Z,96953.41
2022-10-09T02:02:12.469Z,96955.56
2022-10-09T02:04:43.378Z,96949.66
2022-10-09T02:07:11.408Z,96949.38
2022-10-09T02:09:40.691Z,96943.72
2022-10-09T02:12:12.911Z,96947.50
2022-10-09T02:14:40.928Z,96939.16
2022-10-09T02:17:13.083Z,96939.97
2022-10-09T02:19:46.792Z,96939.16
2022-10-09T02:22:18.949Z,96938.91
2022-10-09T02:24:47.652Z,96938.63
2022-10-09T02:27:17.807Z,96930.84
2022-10-09T02:29:47.195Z,96937.28
2022-10-09T02:32:15.263Z,96937.00
2022-10-09T02:34:43.120Z,96925.44
2022-10-09T02:37:10.778Z,96932.72
2022-10-09T02:39:38.464Z,96921.41
2022-10-09T02:42:06.363Z,96916.03
2022-10-09T02:44:35.483Z,96917.91
2022-10-09T02:47:03.443Z,96913.91
2022-10-09T02:49:31.107Z,96913.63
2022-10-09T02:51:58.816Z,96909.03
2022-10-09T02:54:26.491Z,96909.28
2022-10-09T02:56:54.120Z,96904.97
2022-10-09T02:59:21.873Z,96905.50
2022-10-09T03:01:51.075Z,96906.31
2022-10-09T03:04:18.913Z,96900.94
2022-10-09T03:06:46.572Z,96900.94
2022-10-09T03:09:14.279Z,96906.56
2022-10-09T03:11:41.968Z,96903.88
2022-10-09T03:14:10.547Z,96900.16
2022-10-09T03:16:38.223Z,96894.78
2022-10-09T03:19:07.454Z,96892.34
2022-10-09T03:21:35.130Z,96896.41
2022-10-09T03:24:02.811Z,96893.97
2022-10-09T03:26:30.459Z,96887.25
2022-10-09T03:28:58.207Z,96885.34
2022-10-09T03:34:16.630Z,96886.94
2022-10-09T03:36:44.444Z,96883.19
2022-10-09T03:39:12.243Z,96888.00
2022-10-09T03:41:39.914Z,96889.06
2022-10-09T03:44:07.777Z,96898.75
2022-10-09T03:46:35.505Z,96900.63
2022-10-09T03:49:03.293Z,96894.44
2022-10-09T03:51:32.315Z,96891.25
2022-10-09T03:53:59.964Z,96891.50
2022-10-09T03:56:27.653Z,96892.59
2022-10-09T03:58:55.346Z,96895.28
2022-10-09T04:01:23.228Z,96905.22
2022-10-09T04:03:50.930Z,96897.97
2022-10-09T04:06:18.617Z,96895.00
2022-10-09T04:08:47.619Z,96892.84
2022-10-09T04:11:15.311Z,96889.34
2022-10-09T04:13:42.998Z,96886.38
2022-10-09T04:16:12.721Z,96891.22
2022-10-09T04:18:40.885Z,96885.81
2022-10-09T04:21:08.795Z,96885.53
2022-10-09T04:23:36.611Z,96897.06
2022-10-09T04:26:05.796Z,96885.81
2022-10-09T04:28:33.784Z,96883.41
2022-10-09T04:31:01.600Z,96871.81
2022-10-09T04:33:29.675Z,96878.00
2022-10-09T04:35:57.915Z,96878.00
2022-10-09T04:38:26.390Z,96887.38
2022-10-09T04:40:58.188Z,96883.63
2022-10-09T04:43:27.779Z,96882.03
2022-10-09T04:45:55.785Z,96880.16
2022-10-09T04:48:23.899Z,96881.78
2022-10-09T04:50:51.563Z,96881.22
2022-10-09T04:53:19.223Z,96885.03
2022-10-09T04:55:47.212Z,96879.38
2022-10-09T04:58:15.541Z,96880.19
2022-10-09T05:00:46.780Z,96869.44
2022-10-09T05:03:15.003Z,96869.41
2022-10-09T05:05:42.699Z,96865.09
2022-10-09T05:08:10.368Z,96868.06
2022-10-09T05:10:38.074Z,96867.28
2022-10-09T05:13:06.195Z,96867.28
2022-10-09T05:15:37.899Z,96869.41
2022-10-09T05:18:07.013Z,96865.63
2022-10-09T05:20:34.700Z,96867.28
2022-10-09T05:23:02.407Z,96866.66
2022-10-09T05:25:30.070Z,96860.25
2022-10-09T05:27:57.738Z,96856.72
2022-10-09T05:30:25.392Z,96862.09
2022-10-09T05:32:53.021Z,96858.88
2022-10-09T05:35:22.043Z,96861.88
2022-10-09T05:37:50.759Z,96853.53
2022-10-09T05:40:18.464Z,96863.50
2022-10-09T05:42:46.274Z,96855.69
2022-10-09T05:45:14.328Z,96860.00
2022-10-09T05:47:41.994Z,96860.22
2022-10-09T05:50:10.361Z,96857.56
2022-10-09T05:52:39.954Z,96855.44
2022-10-09T05:55:08.363Z,96850.56
2022-10-09T05:57:36.009Z,96851.38
2022-10-09T06:00:03.808Z,96856.19
2022-10-09T06:02:40.005Z,96858.88
2022-10-09T06:05:08.436Z,96862.13
2022-10-09T06:07:36.107Z,96861.31
2022-10-09T06:10:05.776Z,96858.91
2022-10-09T06:12:33.455Z,96863.22
2022-10-09T06:15:01.160Z,96863.75
2022-10-09T06:17:28.844Z,96870.75
2022-10-09T06:19:56.538Z,96864.28
2022-10-09T06:22:24.204Z,96871.00
2022-10-09T06:24:51.889Z,96864.53
2022-10-09T06:27:20.887Z,96877.41
2022-10-09T06:29:48.603Z,96873.09
2022-10-09T06:32:16.260Z,96871.72
2022-10-09T06:34:43.915Z,96869.00
2022-10-09T06:37:11.580Z,96871.66
2022-10-09T06:39:39.287Z,96873.22
2022-10-09T06:42:06.951Z,96875.06
2022-10-09T06:44:52.506Z,96891.78
2022-10-09T06:47:20.143Z,96884.47
2022-10-09T06:49:47.812Z,96880.94
2022-10-09T06:52:15.471Z,96890.88
2022-10-09T06:54:43.146Z,96894.06
2022-10-09T06:57:10.838Z,96894.28
2022-10-09T06:59:38.497Z,96889.16
2022-10-09T07:02:07.545Z,96888.03
2022-10-09T07:04:35.296Z,96893.94
2022-10-09T07:07:03.099Z,96886.13
2022-10-09T07:09:31.035Z,96888.78
2022-10-09T07:11:58.681Z,96893.31
2022-10-09T07:14:26.343Z,96899.75
2022-10-09T07:16:54.036Z,96896.97
2022-10-09T07:19:23.054Z,96892.28
2022-10-09T07:21:51.246Z,96892.53
2022-10-09T07:24:20.513Z,96897.88
2022-10-09T07:26:49.240Z,96887.56
2022-10-09T07:29:18.504Z,96893.41
2022-10-09T07:31:46.524Z,96898.47
2022-10-09T07:34:14.227Z,96894.63
2022-10-09T07:36:43.495Z,96886.44
2022-10-09T07:39:11.183Z,96888.84
2022-10-09T07:41:38.824Z,96890.47
2022-10-09T07:44:06.495Z,96893.31
2022-10-09T07:46:34.499Z,96893.50
2022-10-09T07:49:02.397Z,96891.53
2022-10-09T07:51:31.123Z,96889.00
2022-10-09T07:54:01.849Z,96893.78
2022-10-09T07:56:31.575Z,96906.09
2022-10-09T07:59:00.886Z,96896.06
2022-10-09T08:01:29.995Z,96895.94
2022-10-09T08:03:58.447Z,96898.78
2022-10-09T08:06:26.452Z,96890.00
2022-10-09T08:08:58.979Z,96888.19
2022-10-09T08:11:29.822Z,96898.88
2022-10-09T08:13:58.138Z,96898.78
2022-10-09T08:16:27.415Z,96897.91
2022-10-09T08:18:56.947Z,96898.25
2022-10-09T08:21:24.680Z,96891.47
2022-10-09T08:23:54.303Z,96891.28
2022-10-09T08:26:23.987Z,96888.00
2022-10-09T08:28:54.967Z,96886.81
2022-10-09T08:31:23.498Z,96879.75
2022-10-09T08:33:54.472Z,96881.97
2022-10-09T08:36:22.927Z,96885.19
2022-10-09T08:38:51.025Z,96877.22
2022-10-09T08:41:28.542Z,96877.81
2022-10-09T08:44:03.214Z,96872.22
2022-10-09T08:46:36.754Z,96878.06
2022-10-09T08:49:06.245Z,96871.31
2022-10-09T08:51:39.517Z,96877.97
2022-10-09T08:54:16.536Z,96878.53
2022-10-09T08:56:45.772Z,96880.88
2022-10-09T08:59:15.115Z,96876.94
2022-10-09T09:01:48.851Z,96880.94
2022-10-09T09:04:39.478Z,96863.69
2022-10-09T09:07:20.465Z,96873.41
2022-10-09T09:09:54.048Z,96864.38
2022-10-09T09:12:29.683Z,96862.38
2022-10-09T09:15:16.201Z,96859.34
2022-10-09T09:17:49.662Z,96862.72
2022-10-09T09:20:25.659Z,96861.53
2022-10-09T09:22:53.683Z,96858.81
2022-10-09T09:25:23.925Z,96850.69
2022-10-09T09:27:54.955Z,96845.66
2022-10-09T09:30:27.418Z,96839.44
2022-10-09T09:33:02.584Z,96849.75
2022-10-09T09:35:37.049Z,96849.00
2022-10-09T09:38:04.819Z,96841.63
2022-10-09T09:40:37.089Z,96849.41
2022-10-09T09:43:13.068Z,96842.59
2022-10-09T09:45:43.753Z,96844.25
2022-10-09T09:48:16.410Z,96843.38
2022-10-09T09:50:53.006Z,96839.72
2022-10-09T09:53:36.871Z,96827.97
2022-10-09T09:56:05.426Z,96824.50
2022-10-09T09:58:36.396Z,96832.19
2022-10-09T10:01:07.584Z,96832.41
2022-10-09T10:03:37.250Z,96822.84
2022-10-09T10:06:05.291Z,96826.84
2022-10-09T10:08:35.008Z,96822.09
2022-10-09T10:11:06.616Z,96820.03
2022-10-09T10:13:37.960Z,96823.06
2022-10-09T10:16:09.290Z,96823.09
2022-10-09T10:18:42.666Z,96818.97
2022-10-09T10:21:14.035Z,96812.56
2022-10-09T10:23:48.227Z,96809.38
2022-10-09T10:26:23.794Z,96809.50
2022-10-09T10:28:57.560Z,96803.88
2022-10-09T10:31:42.665Z,96799.72
2022-10-09T10:34:18.346Z,96810.56
2022-10-09T10:36:47.611Z,96808.47
2022-10-09T10:39:24.738Z,96803.78
2022-10-09T10:41:56.698Z,96801.00
2022-10-09T10:44:31.445Z,96797.28
2022-10-09T10:47:06.868Z,96797.72
2022-10-09T10:49:34.683Z,96793.66
2022-10-09T10:52:18.299Z,96790.59
2022-10-09T10:54:53.828Z,96802.44
2022-10-09T10:57:27.560Z,96797.44
2022-10-09T11:00:05.756Z,96789.13
2022-10-09T11:03:11.817Z,96783.78
2022-10-09T11:05:48.255Z,96781.81
2022-10-09T11:08:30.186Z,96776.03
2022-10-09T11:11:06.749Z,96774.72
2022-10-09T11:13:38.620Z,96778.41
2022-10-09T11:16:20.101Z,96780.28
2022-10-09T11:19:05.194Z,96789.88
2022-10-09T11:21:45.848Z,96778.59
2022-10-09T11:24:38.702Z,96782.69
2022-10-09T11:27:14.794Z,96772.97
2022-10-09T11:29:46.894Z,96772.56
2022-10-09T11:32:19.671Z,96770.41
2022-10-09T11:34:53.938Z,96766.91
2022-10-09T11:37:28.008Z,96759.44
2022-10-09T11:39:56.710Z,96761.03
2022-10-09T11:42:27.353Z,96759.09
2022-10-09T11:45:08.787Z,96753.97
2022-10-09T11:47:45.289Z,96742.44
2022-10-09T11:50:27.501Z,96739.03
2022-10-09T11:53:04.210Z,96735.47
2022-10-09T11:55:33.746Z,96733.63
2022-10-09T11:58:23.539Z,96725.75
2022-10-09T12:00:54.634Z,96728.44
2022-10-09T12:03:33.396Z,96720.88
2022-10-09T12:06:08.501Z,96725.84
2022-10-09T12:08:39.232Z,96716.53
2022-10-09T12:11:15.719Z,96717.69
2022-10-09T12:13:52.384Z,96705.00
2022-10-09T12:16:41.813Z,96701.56
2022-10-09T12:19:19.053Z,96709.56
2022-10-09T12:21:59.392Z,96705.38
2022-10-09T12:24:32.583Z,96703.94
2022-10-09T12:27:03.178Z,96691.13
2022-10-09T12:29:34.399Z,96698.09
2022-10-09T12:32:07.753Z,96691.78
2022-10-09T12:34:39.474Z,96681.22
2022-10-09T12:37:16.024Z,96687.28
2022-10-09T12:39:46.290Z,96686.84
2022-10-09T12:42:19.993Z,96681.19
2022-10-09T12:44:49.701Z,96669.91
2022-10-09T12:47:22.438Z,96670.69
2022-10-09T12:50:01.864Z,96666.88
2022-10-09T12:52:31.831Z,96667.88
2022-10-09T12:55:02.651Z,96662.97
2022-10-09T12:57:30.857Z,96663.34
2022-10-09T12:59:59.229Z,96665.16
2022-10-09T13:02:27.106Z,96662.53
2022-10-09T13:05:02.034Z,96658.88
2022-10-09T13:07:32.391Z,96654.47
2022-10-09T13:10:05.223Z,96648.78
2022-10-09T13:12:33.990Z,96656.16
2022-10-09T13:15:03.879Z,96652.97
2022-10-09T13:17:33.557Z,96647.06
2022-10-09T13:20:03.824Z,96641.72
2022-10-09T13:22:35.081Z,96651.41
2022-10-09T13:25:06.417Z,96646.28
2022-10-09T13:27:38.948Z,96645.50
2022-10-09T13:30:08.378Z,96642.88
2022-10-09T13:32:36.093Z,96635.69
2022-10-09T13:35:04.595Z,96636.03
2022-10-09T13:37:32.392Z,96632.13
2022-10-09T13:40:00.675Z,96637.72
2022-10-09T13:42:33.474Z,96640.41
2022-10-09T13:45:01.138Z,96636.28
2022-10-09T13:47:28.812Z,96630.13
2022-10-09T13:49:56.527Z,96630.22
2022-10-09T13:52:24.223Z,96625.25
2022-10-09T13:54:51.903Z,96626.16
2022-10-09T13:57:20.205Z,96614.69
2022-10-09T13:59:49.455Z,96612.97
2022-10-09T14:02:17.332Z,96607.25
2022-10-09T14:04:45.053Z,96601.25
2022-10-09T14:07:12.830Z,96598.16
2022-10-09T14:09:40.575Z,96593.38
2022-10-09T14:12:08.617Z,96592.47
2022-10-09T14:14:36.604Z,96586.31
2022-10-09T14:17:05.657Z,96587.47
2022-10-09T14:19:33.382Z,96581.50
2022-10-09T14:22:01.080Z,96582.97
2022-10-09T14:24:28.824Z,96587.16
2022-10-09T14:26:56.530Z,96577.28
2022-10-09T14:29:24.243Z,96584.19
2022-10-09T14:31:52.311Z,96588.59
2022-10-09T14:34:21.898Z,96585.31
2022-10-09T14:36:49.861Z,96582.69
2022-10-09T14:39:17.704Z,96575.34
2022-10-09T14:41:45.781Z,96575.50
2022-10-09T14:44:20.853Z,96575.81
2022-10-09T14:46:48.577Z,96579.44
2022-10-09T14:49:16.348Z,96576.69
2022-10-09T14:51:45.387Z,96585.47
2022-10-09T14:54:13.344Z,96580.47
2022-10-09T14:56:41.074Z,96574.09
2022-10-09T14:59:09.044Z,96581.34
2022-10-09T15:01:36.733Z,96574.97
2022-10-09T15:04:05.243Z,96565.88
2022-10-09T15:06:33.464Z,96576.78
2022-10-09T15:09:05.568Z,96569.06
2022-10-09T15:11:34.639Z,96571.69
2022-10-09T15:14:02.668Z,96572.53
2022-10-09T15:16:30.537Z,96558.94
2022-10-09T15:18:59.407Z,96565.56
2022-10-09T15:21:29.402Z,96561.72
2022-10-09T15:23:58.623Z,96549.44
2022-10-09T15:26:29.614Z,96555.00
2022-10-09T15:28:57.727Z,96546.00
2022-10-09T15:31:28.375Z,96547.00
2022-10-09T15:33:58.067Z,96543.34
2022-10-09T15:36:26.162Z,96535.03
2022-10-09T15:38:54.080Z,96539.72
2022-10-09T15:41:23.486Z,96528.56
2022-10-09T15:43:55.031Z,96525.56
2022-10-09T15:46:23.171Z,96526.22
2022-10-09T15:48:51.062Z,96514.88
2022-10-09T15:51:19.784Z,96511.88
2022-10-09T15:53:48.981Z,96507.78
2022-10-09T15:56:18.914Z,96504.31
2022-10-09T15:58:46.715Z,96498.72
2022-10-09T16:01:17.198Z,96497.69
2022-10-09T16:03:45.592Z,96499.91
2022-10-09T16:06:16.138Z,96500.44
2022-10-09T16:08:44.296Z,96493.25
2022-10-09T16:11:13.859Z,96490.88
2022-10-09T16:13:44.131Z,96495.19
2022-10-09T16:16:15.193Z,96496.47
2022-10-09T16:18:44.308Z,96496.06
2022-10-09T16:21:14.960Z,96490.28
2022-10-09T16:23:42.757Z,96491.56
2022-10-09T16:26:11.459Z,96485.38
2022-10-09T16:28:39.435Z,96490.34
2022-10-09T16:31:07.442Z,96487.66
2022-10-09T16:33:35.150Z,96492.31
2022-10-09T16:36:11.900Z,96483.69
2022-10-09T16:38:40.045Z,96474.59
2022-10-09T16:41:09.435Z,96479.56
2022-10-09T16:43:38.036Z,96478.16
2022-10-09T16:46:16.562Z,96488.53
2022-10-09T16:48:44.280Z,96489.97
2022-10-09T16:51:15.366Z,96489.66
2022-10-09T16:53:43.795Z,96493.00
2022-10-09T16:56:16.397Z,96492.22
2022-10-09T16:58:44.816Z,96484.91
2022-10-09T17:01:13.525Z,96489.66
2022-10-09T17:03:42.021Z,96490.34
2022-10-09T17:06:11.616Z,96494.81
2022-10-09T17:08:41.352Z,96492.75
2022-10-09T17:11:10.137Z,96485.22
2022-10-09T17:13:37.957Z,96483.19
2022-10-09T17:16:07.522Z,96480.16
2022-10-09T17:18:36.043Z,96482.88
2022-10-09T17:21:04.527Z,96484.78
2022-10-09T17:23:32.488Z,96478.41
2022-10-09T17:26:06.676Z,96487.34
2022-10-09T17:28:35.270Z,96490.88
2022-10-09T17:31:04.412Z,96483.72
2022-10-09T17:33:32.481Z,96487.84
2022-10-09T17:36:00.602Z,96491.53
2022-10-09T17:38:28.387Z,96491.69
2022-10-09T17:40:56.078Z,96484.34
2022-10-09T17:43:25.141Z,96493.91
2022-10-09T17:45:52.824Z,96491.34
2022-10-09T17:48:20.507Z,96492.94
2022-10-09T17:50:52.759Z,96478.91
2022-10-09T17:53:22.535Z,96478.44
2022-10-09T17:55:51.783Z,96488.34
2022-10-09T17:58:20.392Z,96488.00
2022-10-09T18:00:49.757Z,96484.19
2022-10-09T18:03:17.619Z,96482.44
2022-10-09T18:05:47.412Z,96473.66
2022-10-09T18:08:17.298Z,96485.13
2022-10-09T18:10:45.213Z,96484.22
2022-10-09T18:13:13.068Z,96483.38
2022-10-09T18:15:41.826Z,96485.63
2022-10-09T18:18:12.087Z,96478.13
2022-10-09T18:20:40.819Z,96480.38
2022-10-09T18:23:09.440Z,96471.28
2022-10-09T18:25:42.171Z,96462.19
2022-10-09T18:28:10.567Z,96464.88
2022-10-09T18:30:42.232Z,96466.00
2022-10-09T18:33:11.444Z,96458.50
2022-10-09T18:35:40.005Z,96459.16
2022-10-09T18:38:09.334Z,96458.19
2022-10-09T18:40:44.507Z,96453.91
2022-10-09T18:43:13.207Z,96450.22
2022-10-09T18:45:46.791Z,96455.16
2022-10-09T18:48:17.367Z,96455.81
2022-10-09T18:50:45.724Z,96452.91
2022-10-09T18:53:13.772Z,96449.25
2022-10-09T18:55:43.865Z,96443.34
2022-10-09T18:58:13.392Z,96448.56
2022-10-09T19:00:41.132Z,96446.81
2022-10-09T19:03:08.911Z,96443.13
2022-10-09T19:05:37.992Z,96445.34
2022-10-09T19:08:05.746Z,96438.66
2022-10-09T19:10:33.520Z,96439.63
2022-10-09T19:13:01.216Z,96432.13
2022-10-09T19:15:28.971Z,96430.84
2022-10-09T19:17:56.678Z,96427.16
2022-10-09T19:20:24.491Z,96430.50
2022-10-09T19:22:53.565Z,96427.94
2022-10-09T19:25:21.296Z,96428.09
2022-10-09T19:27:49.270Z,96417.59
2022-10-09T19:30:17.308Z,96428.25
2022-10-09T19:32:45.802Z,96430.78
2022-10-09T19:35:14.994Z,96423.28
2022-10-09T19:37:42.699Z,96422.63
2022-10-09T19:40:11.953Z,96426.78
2022-10-09T19:42:39.644Z,96417.34
2022-10-09T19:45:08.553Z,96412.88
2022-10-09T19:47:36.371Z,96412.69
2022-10-09T19:50:04.404Z,96409.84
2022-10-09T19:52:32.090Z,96412.84
2022-10-09T19:54:59.821Z,96402.34
2022-10-09T19:57:29.033Z,96405.84
2022-10-09T19:59:56.772Z,96410.00
2022-10-09T20:02:24.466Z,96412.97
2022-10-09T20:04:52.419Z,96405.81
2022-10-09T20:07:20.119Z,96415.03
2022-10-09T20:09:47.846Z,96419.66
2022-10-09T20:12:15.543Z,96412.28
2022-10-09T20:14:44.632Z,96412.44
2022-10-09T20:17:12.455Z,96411.59
2022-10-09T20:19:43.487Z,96418.44
2022-10-09T20:22:13.384Z,96422.22
2022-10-09T20:24:41.166Z,96424.53
2022-10-09T20:27:08.836Z,96413.84
2022-10-09T20:29:36.599Z,96409.84
2022-10-09T20:32:05.720Z,96409.56
2022-10-09T20:34:33.296Z,96408.13
2022-10-09T20:37:01.036Z,96396.97
2022-10-09T20:39:28.741Z,96393.19
2022-10-09T20:41:56.425Z,96396.97
2022-10-09T20:44:24.330Z,96395.09
2022-10-09T20:46:56.403Z,96400.81
2022-10-09T20:49:25.646Z,96384.56
2022-10-09T20:51:53.660Z,96399.22
2022-10-09T20:54:22.624Z,96401.72
2022-10-09T20:56:50.859Z,96405.88
2022-10-09T20:59:18.710Z,96404.28
2022-10-09T21:01:46.580Z,96389.47
2022-10-09T21:04:14.838Z,96398.38
2022-10-09T21:06:43.948Z,96396.78
2022-10-09T21:09:11.697Z,96385.44
2022-10-09T21:11:41.364Z,96384.97
2022-10-09T21:14:10.588Z,96385.28
2022-10-09T21:16:38.379Z,96388.00
2022-10-09T21:19:07.027Z,96389.41
2022-10-09T21:21:35.185Z,96394.00
2022-10-09T21:24:05.040Z,96391.91
2022-10-09T21:26:35.563Z,96395.72
2022-10-09T21:29:04.313Z,96399.91
2022-10-09T21:31:33.140Z,96395.91
2022-10-09T21:34:01.802Z,96392.81
2022-10-09T21:36:35.381Z,96384.81
2022-10-09T21:39:06.299Z,96387.06
2022-10-09T21:41:34.274Z,96390.06
2022-10-09T21:44:02.340Z,96383.50
2022-10-09T21:46:30.856Z,96385.31
2022-10-09T21:48:58.949Z,96384.53
2022-10-09T21:51:27.995Z,96385.31
2022-10-09T21:53:56.124Z,96383.75
2022-10-09T21:56:25.173Z,96382.13
2022-10-09T21:58:52.925Z,96384.34
2022-10-09T22:01:20.674Z,96377.63
2022-10-09T22:03:48.636Z,96378.75
2022-10-09T22:06:19.151Z,96380.44
2022-10-09T22:08:47.841Z,96381.56
2022-10-09T22:11:16.693Z,96378.56
2022-10-09T22:13:45.749Z,96383.59
2022-10-09T22:16:15.162Z,96388.00
2022-10-09T22:18:43.622Z,96386.41
2022-10-09T22:21:14.300Z,96380.03
2022-10-09T22:23:42.375Z,96379.53
2022-10-09T22:26:12.484Z,96381.13
2022-10-09T22:28:40.558Z,96376.53
2022-10-09T22:31:13.407Z,96382.41
2022-10-09T22:33:41.603Z,96371.13
2022-10-09T22:36:11.644Z,96382.59
2022-10-09T22:38:40.373Z,96375.50
2022-10-09T22:41:10.593Z,96372.34
2022-10-09T22:43:39.467Z,96369.53
2022-10-09T22:46:10.823Z,96380.53
2022-10-09T22:48:38.671Z,96378.03
2022-10-09T22:51:08.499Z,96369.59
2022-10-09T22:53:37.361Z,96366.28
2022-10-09T22:56:06.251Z,96367.88
2022-10-09T22:58:34.485Z,96366.16
2022-10-09T23:01:05.373Z,96362.34
2022-10-09T23:03:34.507Z,96363.66
2022-10-09T23:06:10.405Z,96364.63
2022-10-09T23:08:38.918Z,96367.34
2022-10-09T23:11:07.013Z,96364.78
2022-10-09T23:13:35.074Z,96371.81
2022-10-09T23:16:04.128Z,96371.03
2022-10-09T23:18:32.168Z,96369.59
2022-10-09T23:21:03.504Z,96371.69
2022-10-09T23:23:31.376Z,96383.28
2022-10-09T23:25:59.044Z,96379.00
2022-10-09T23:28:27.634Z,96373.28
2022-10-09T23:31:01.690Z,96372.19
2022-10-09T23:33:29.386Z,96373.50
2022-10-09T23:35:57.180Z,96376.22
2022-10-09T23:38:26.315Z,96374.28
2022-10-09T23:40:58.037Z,96376.69
2022-10-09T23:43:26.662Z,96366.66
2022-10-09T23:45:56.639Z,96382.88
2022-10-09T23:48:24.632Z,96374.78
2022-10-09T23:50:53.309Z,96371.78
2022-10-09T23:53:21.387Z,96366.84
2022-10-09T23:55:50.616Z,96371.47
2022-10-09T23:58:20.995Z,96373.84
